Time;durP1;ratioP1;P1;durP2;ratioP2;P2;SDS_P1;SDS_P2;PMS_P1;PMS_P2;Temp;Humidity;BMP_temperature;BMP_pressure;BME280_temperature;BME280_humidity;BME280_pressure;Samples;Min_cycle;Max_cycle;Signal;HPM_P1;HPM_P2
2021/11/01 00:02:15;;;;;;;4.63;3.37;;;10.80;99.90;;;;;;5031358;28;20471;-67
2021/11/01 00:04:44;;;;;;;1.33;1.23;;;10.90;99.90;;;;;;5031334;28;20395;-67
2021/11/01 00:07:13;;;;;;;2.17;2.03;;;10.90;99.90;;;;;;5031302;28;20781;-67
2021/11/01 00:09:42;;;;;;;3.57;2.57;;;10.90;99.90;;;;;;5031414;28;20531;-67
2021/11/01 00:12:13;;;;;;;1.90;1.10;;;10.90;99.90;;;;;;5031295;28;20448;-66
2021/11/01 00:14:42;;;;;;;6.73;1.77;;;10.90;99.90;;;;;;5013928;28;20436;-66
2021/11/01 00:17:10;;;;;;;5.20;2.50;;;10.80;99.90;;;;;;5031613;28;20466;-66
2021/11/01 00:19:38;;;;;;;2.10;2.00;;;10.90;99.90;;;;;;5031630;28;20395;-67
2021/11/01 00:22:06;;;;;;;1.83;1.37;;;10.90;99.90;;;;;;5031478;28;20407;-67
2021/11/01 00:24:34;;;;;;;3.90;1.23;;;10.80;99.90;;;;;;5031592;28;20437;-66
2021/11/01 00:27:02;;;;;;;3.07;2.77;;;10.80;99.90;;;;;;5031361;28;20458;-68
2021/11/01 00:29:32;;;;;;;2.53;2.27;;;10.80;99.90;;;;;;5013615;28;20475;-67
2021/11/01 00:32:00;;;;;;;1.77;1.60;;;10.80;99.90;;;;;;5031672;28;20436;-67
2021/11/01 00:34:28;;;;;;;3.10;2.80;;;10.70;99.90;;;;;;5031724;28;20420;-68
2021/11/01 00:36:56;;;;;;;2.00;1.90;;;10.80;99.90;;;;;;5031708;28;20425;-67
2021/11/01 00:39:24;;;;;;;4.57;2.37;;;10.70;99.90;;;;;;5031563;28;20871;-66
2021/11/01 00:41:52;;;;;;;14.43;1.63;;;10.70;99.90;;;;;;5031394;28;20470;-66
2021/11/01 00:44:21;;;;;;;1.07;0.97;;;10.60;99.90;;;;;;5031464;28;20416;-66
2021/11/01 00:46:50;;;;;;;2.47;2.13;;;10.50;99.90;;;;;;5031496;28;20412;-68
2021/11/01 00:49:18;;;;;;;3.80;2.57;;;10.60;99.90;;;;;;5031096;28;20940;-66
2021/11/01 00:51:47;;;;;;;3.57;2.00;;;10.60;99.90;;;;;;5034057;28;20391;-66
2021/11/01 00:54:15;;;;;;;2.47;2.27;;;10.60;99.90;;;;;;5034897;28;20416;-67
2021/11/01 00:56:43;;;;;;;1.70;1.40;;;10.60;99.90;;;;;;5034440;28;20486;-67
2021/11/01 00:59:11;;;;;;;1.87;1.30;;;10.60;99.90;;;;;;5035090;28;20814;-67
2021/11/01 01:01:40;;;;;;;2.60;0.90;;;10.60;99.90;;;;;;5034960;28;20539;-67
2021/11/01 01:04:10;;;;;;;2.30;2.10;;;10.50;99.90;;;;;;5017348;28;20406;-66
2021/11/01 01:06:38;;;;;;;7.30;1.77;;;10.60;99.90;;;;;;5034521;28;20413;-66
2021/11/01 01:09:06;;;;;;;3.10;1.67;;;10.60;99.90;;;;;;5034229;28;20409;-66
2021/11/01 01:11:35;;;;;;;3.33;2.10;;;10.50;99.90;;;;;;5034013;28;20809;-68
2021/11/01 01:14:03;;;;;;;1.80;1.70;;;10.50;99.90;;;;;;5034793;28;20421;-67
2021/11/01 01:16:32;;;;;;;7.43;1.83;;;10.40;99.90;;;;;;5034605;28;20419;-67
2021/11/01 01:19:02;;;;;;;2.40;1.73;;;10.40;99.90;;;;;;5035307;28;20944;-67
2021/11/01 01:24:17;;;;;;;2.10;1.40;;;10.40;99.90;;;;;;5034195;28;20410;-67
2021/11/01 01:26:45;;;;;;;2.03;1.87;;;10.30;99.90;;;;;;5033620;28;20417;-67
2021/11/01 01:29:13;;;;;;;5.93;1.70;;;10.30;99.90;;;;;;5033883;28;20387;-67
2021/11/01 01:31:42;;;;;;;1.20;0.80;;;10.30;99.90;;;;;;5033623;28;20416;-67
2021/11/01 01:34:11;;;;;;;3.20;1.40;;;10.30;99.90;;;;;;5033816;28;20431;-67
2021/11/01 01:36:40;;;;;;;3.53;1.37;;;10.30;99.90;;;;;;5033381;28;20543;-67
2021/11/01 01:39:08;;;;;;;1.60;1.23;;;10.20;99.90;;;;;;5033583;28;20905;-67
2021/11/01 01:41:36;;;;;;;2.30;2.10;;;10.20;99.90;;;;;;5033481;28;20424;-66
2021/11/01 01:44:05;;;;;;;1.70;1.37;;;10.20;99.90;;;;;;5033633;28;20408;-66
2021/11/01 01:46:33;;;;;;;2.83;1.97;;;10.10;99.90;;;;;;5033231;28;20456;-66
2021/11/01 01:49:01;;;;;;;2.50;1.43;;;10.10;99.90;;;;;;5033528;28;20424;-67
2021/11/01 01:51:31;;;;;;;1.73;1.63;;;10.10;99.90;;;;;;5033400;28;20893;-66
2021/11/01 01:54:01;;;;;;;1.87;1.30;;;10.10;99.90;;;;;;5033183;28;20462;-66
2021/11/01 01:56:30;;;;;;;4.20;1.57;;;10.10;99.90;;;;;;5032998;28;20459;-67
2021/11/01 01:59:04;;;;;;;1.83;1.57;;;10.10;99.90;;;;;;5032973;28;20420;-68
2021/11/01 02:01:33;;;;;;;2.37;2.17;;;10.00;99.90;;;;;;5032663;28;20432;-67
2021/11/01 02:04:03;;;;;;;3.80;2.20;;;10.00;99.90;;;;;;5032628;28;20515;-66
2021/11/01 02:06:46;;;;;;;2.63;2.10;;;10.00;99.90;;;;;;5032831;28;20433;-68
2021/11/01 02:09:21;;;;;;;2.97;2.73;;;10.10;99.90;;;;;;5033252;28;20415;-68
2021/11/01 02:11:58;;;;;;;3.20;2.97;;;10.10;99.90;;;;;;5032958;28;20483;-67
2021/11/01 02:14:33;;;;;;;2.90;1.83;;;10.10;99.90;;;;;;5033260;28;20678;-66
2021/11/01 02:17:01;;;;;;;1.30;1.13;;;10.00;99.90;;;;;;5033169;28;20427;-67
2021/11/01 02:19:34;;;;;;;3.27;1.63;;;10.00;99.90;;;;;;5034021;28;20983;-67
2021/11/01 02:22:07;;;;;;;1.63;1.33;;;10.00;99.90;;;;;;5033219;28;20984;-67
2021/11/01 02:24:47;;;;;;;3.57;2.60;;;10.00;99.90;;;;;;5032702;28;20427;-67
2021/11/01 02:27:17;;;;;;;2.90;1.37;;;10.00;99.90;;;;;;5032405;28;20405;-67
2021/11/01 02:29:47;;;;;;;3.07;2.77;;;10.10;99.90;;;;;;5032803;28;20412;-67
2021/11/01 02:32:17;;;;;;;3.10;2.90;;;10.10;99.90;;;;;;5015057;28;20459;-67
2021/11/01 02:34:46;;;;;;;2.37;2.17;;;10.20;99.90;;;;;;5014793;28;20519;-67
2021/11/01 02:37:15;;;;;;;2.53;1.43;;;10.20;99.90;;;;;;5032507;28;20417;-67
2021/11/01 02:39:50;;;;;;;1.43;1.33;;;10.10;99.90;;;;;;5032581;28;20462;-67
2021/11/01 02:42:21;;;;;;;2.20;1.00;;;10.10;99.90;;;;;;5032603;28;20448;-67
2021/11/01 02:44:53;;;;;;;2.03;0.70;;;10.10;99.90;;;;;;5032200;28;20466;-67
2021/11/01 02:47:22;;;;;;;2.20;2.10;;;10.00;99.90;;;;;;5032128;28;20924;-67
2021/11/01 02:49:50;;;;;;;1.30;1.10;;;10.00;99.90;;;;;;5032358;28;20503;-67
2021/11/01 02:52:18;;;;;;;2.63;1.47;;;10.00;99.90;;;;;;5032089;28;20480;-67
2021/11/01 02:54:48;;;;;;;4.00;1.17;;;9.90;99.90;;;;;;5032402;28;20420;-67
2021/11/01 02:57:16;;;;;;;3.47;3.17;;;9.90;99.90;;;;;;5031800;28;20428;-67
2021/11/01 02:59:45;;;;;;;2.03;1.53;;;10.00;99.90;;;;;;5032218;28;20448;-67
2021/11/01 03:02:14;;;;;;;1.30;1.10;;;9.90;99.90;;;;;;5032155;28;20440;-67
2021/11/01 03:04:42;;;;;;;3.33;3.13;;;9.90;99.90;;;;;;5032099;28;20395;-67
2021/11/01 03:07:11;;;;;;;3.20;2.07;;;9.90;99.90;;;;;;5031825;28;20292;-66
2021/11/01 03:09:45;;;;;;;2.00;1.90;;;9.90;99.90;;;;;;5031923;28;20421;-66
2021/11/01 03:12:16;;;;;;;2.00;1.53;;;9.90;99.90;;;;;;5032166;28;20534;-66
2021/11/01 03:14:57;;;;;;;4.73;2.80;;;9.80;99.90;;;;;;5032063;28;20408;-66
2021/11/01 03:17:35;;;;;;;0.97;0.83;;;9.90;99.90;;;;;;5031256;28;20535;-67
2021/11/01 03:20:08;;;;;;;4.20;1.88;;;9.80;99.90;;;;;;5031781;28;20438;-68
2021/11/01 03:22:40;;;;;;;6.22;3.40;;;9.80;99.90;;;;;;5031617;28;20205;-66
2021/11/01 03:25:20;;;;;;;2.40;1.30;;;9.80;99.90;;;;;;5031517;28;20554;-67
2021/11/01 03:27:54;;;;;;;3.23;2.33;;;9.90;99.90;;;;;;5031375;28;20440;-66
2021/11/01 03:30:25;;;;;;;2.50;2.27;;;9.90;99.90;;;;;;5031473;28;20415;-67
2021/11/01 03:32:54;;;;;;;2.30;2.20;;;9.90;99.90;;;;;;5031364;28;20457;-67
2021/11/01 03:35:24;;;;;;;3.80;1.70;;;9.80;99.90;;;;;;5031330;28;20474;-67
2021/11/01 03:37:55;;;;;;;1.50;1.00;;;9.70;99.90;;;;;;5031338;28;20188;-67
2021/11/01 03:40:27;;;;;;;1.33;0.70;;;9.90;99.90;;;;;;5031346;28;20503;-67
2021/11/01 03:42:56;;;;;;;4.20;1.33;;;9.80;99.90;;;;;;5031162;28;20451;-66
2021/11/01 03:45:27;;;;;;;1.05;0.93;;;9.80;99.90;;;;;;5031454;28;20970;-67
2021/11/01 03:48:02;;;;;;;1.40;0.90;;;9.70;99.90;;;;;;5031410;28;20181;-67
2021/11/01 03:50:35;;;;;;;1.30;1.20;;;9.70;99.90;;;;;;5031971;28;20427;-66
2021/11/01 03:53:04;;;;;;;1.40;1.30;;;9.80;99.90;;;;;;5031256;28;20443;-66
2021/11/01 03:55:32;;;;;;;2.90;1.83;;;9.80;99.90;;;;;;5032202;28;20189;-66
2021/11/01 03:58:01;;;;;;;3.95;1.63;;;9.80;99.90;;;;;;5033207;28;20543;-67
2021/11/01 04:00:36;;;;;;;2.20;2.07;;;9.80;99.90;;;;;;5033587;28;20248;-67
2021/11/01 04:03:05;;;;;;;1.60;1.50;;;9.80;99.90;;;;;;5015918;28;20430;-67
2021/11/01 04:05:34;;;;;;;5.67;1.60;;;9.80;99.90;;;;;;5036379;28;20431;-67
2021/11/01 04:08:02;;;;;;;2.83;2.50;;;9.80;99.90;;;;;;5034513;28;20451;-68
2021/11/01 04:10:31;;;;;;;5.57;2.07;;;9.80;99.90;;;;;;5031050;28;20420;-66
2021/11/01 04:13:00;;;;;;;2.80;1.33;;;10.00;99.90;;;;;;5031195;28;20476;-66
2021/11/01 04:15:28;;;;;;;3.20;1.63;;;10.10;99.90;;;;;;5031664;28;20408;-67
2021/11/01 04:18:00;;;;;;;1.80;1.53;;;10.00;99.90;;;;;;5031807;28;20438;-67
2021/11/01 04:20:33;;;;;;;1.60;1.00;;;10.00;99.90;;;;;;5031603;28;20409;-67
2021/11/01 04:23:04;;;;;;;2.20;1.20;;;9.90;99.90;;;;;;5031239;28;20494;-68
2021/11/01 04:25:33;;;;;;;1.53;1.43;;;9.80;99.90;;;;;;5032120;28;20424;-67
2021/11/01 04:28:02;;;;;;;1.77;1.33;;;9.80;99.90;;;;;;5035033;28;20485;-67
2021/11/01 04:30:37;;;;;;;2.10;1.98;;;9.80;99.90;;;;;;5034904;28;20420;-67
2021/11/01 04:33:10;;;;;;;2.00;1.08;;;9.70;99.90;;;;;;5034619;28;20300;-69
2021/11/01 04:35:39;;;;;;;1.87;1.67;;;9.80;99.90;;;;;;5035067;28;20186;-67
2021/11/01 04:38:18;;;;;;;1.83;1.43;;;9.80;99.90;;;;;;5034385;28;20428;-68
2021/11/01 04:41:00;;;;;;;2.40;1.97;;;9.80;99.90;;;;;;5034829;28;20887;-67
2021/11/01 04:54:42;;;;;;;3.00;1.70;;;9.90;99.90;;;;;;5017575;28;20436;-66
2021/11/01 04:57:11;;;;;;;3.13;1.27;;;10.10;99.90;;;;;;5038683;28;20434;-67
2021/11/01 04:59:39;;;;;;;5.23;2.00;;;10.00;99.90;;;;;;5041236;28;20791;-66
2021/11/01 05:02:07;;;;;;;3.40;2.73;;;9.90;99.90;;;;;;5040500;28;20516;-67
2021/11/01 05:04:39;;;;;;;1.50;1.40;;;9.90;99.90;;;;;;5039659;28;20405;-66
2021/11/01 05:07:08;;;;;;;2.20;1.67;;;9.90;99.90;;;;;;5037596;28;20498;-67
2021/11/01 05:09:39;;;;;;;2.15;1.25;;;10.00;99.90;;;;;;5036801;28;20448;-66
2021/11/01 05:12:20;;;;;;;1.20;1.10;;;9.90;99.90;;;;;;5018880;28;20589;-66
2021/11/01 05:14:59;;;;;;;3.23;1.67;;;10.00;99.90;;;;;;5037214;28;20383;-66
2021/11/01 05:17:36;;;;;;;1.33;1.23;;;9.90;99.90;;;;;;5035938;28;20852;-66
2021/11/01 05:20:12;;;;;;;1.47;0.97;;;9.80;99.90;;;;;;5036001;28;20188;-67
2021/11/01 05:22:46;;;;;;;4.50;1.77;;;9.90;99.90;;;;;;5017177;28;20462;-67
2021/11/01 05:25:17;;;;;;;1.37;1.00;;;10.00;99.90;;;;;;5034700;28;20424;-67
2021/11/01 05:28:01;;;;;;;1.63;1.50;;;10.10;99.90;;;;;;5034521;28;20448;-66
2021/11/01 05:30:33;;;;;;;3.80;1.60;;;10.10;99.90;;;;;;5034334;28;20420;-68
2021/11/01 05:33:06;;;;;;;5.40;2.43;;;10.20;99.90;;;;;;5034092;28;20551;-66
2021/11/01 05:35:35;;;;;;;2.33;1.90;;;10.30;99.90;;;;;;5034123;28;20456;-66
2021/11/01 05:38:03;;;;;;;2.70;1.90;;;10.30;99.90;;;;;;5016163;28;20452;-67
2021/11/01 05:40:32;;;;;;;1.60;1.30;;;10.20;99.90;;;;;;5034106;28;20511;-67
2021/11/01 05:43:00;;;;;;;1.87;1.67;;;10.30;99.90;;;;;;5033857;28;20934;-67
2021/11/01 05:45:29;;;;;;;2.43;2.23;;;10.40;99.90;;;;;;5033769;28;20424;-67
2021/11/01 05:47:58;;;;;;;2.10;1.90;;;10.40;99.90;;;;;;5033655;28;20416;-66
2021/11/01 05:50:28;;;;;;;2.50;1.77;;;10.60;99.90;;;;;;5033280;28;20405;-66
2021/11/01 05:53:00;;;;;;;1.10;0.90;;;10.60;99.90;;;;;;5033389;28;20468;-68
2021/11/01 05:55:36;;;;;;;4.00;2.97;;;10.60;99.90;;;;;;5033463;28;20440;-66
2021/11/01 05:58:11;;;;;;;2.27;1.90;;;10.60;99.90;;;;;;5033439;28;20419;-66
2021/11/01 06:00:53;;;;;;;4.23;2.67;;;10.60;99.90;;;;;;5033470;28;20431;-67
2021/11/01 06:03:25;;;;;;;3.40;1.80;;;10.90;99.90;;;;;;5033359;28;20447;-67
2021/11/01 06:08:44;;;;;;;1.03;0.93;;;10.80;99.90;;;;;;5031022;28;20502;-66
2021/11/01 06:13:58;;;;;;;4.70;2.83;;;11.00;99.90;;;;;;5032991;28;20471;-66
2021/11/01 06:16:32;;;;;;;3.43;2.90;;;11.00;99.90;;;;;;5033366;28;20394;-66
2021/11/01 06:19:00;;;;;;;1.97;1.53;;;11.00;99.90;;;;;;5033512;28;20395;-67
2021/11/01 06:21:28;;;;;;;5.43;2.00;;;11.00;99.90;;;;;;5032636;28;20802;-67
2021/11/01 06:24:12;;;;;;;1.33;1.23;;;11.10;99.90;;;;;;5032701;28;20447;-67
2021/11/01 06:26:40;;;;;;;2.63;1.90;;;11.10;99.90;;;;;;5032456;28;20633;-66
2021/11/01 06:29:09;;;;;;;1.00;0.80;;;11.10;99.90;;;;;;5032530;28;20408;-68
2021/11/01 06:31:44;;;;;;;3.90;2.20;;;11.20;99.90;;;;;;5032505;28;20420;-67
2021/11/01 06:34:35;;;;;;;1.57;1.47;;;11.20;99.90;;;;;;5032435;28;20536;-66
2021/11/01 06:39:58;;;;;;;2.30;2.10;;;11.30;99.90;;;;;;5003432;28;20440;-67
2021/11/01 06:45:39;;;;;;;3.07;2.50;;;11.70;99.90;;;;;;5033215;28;20452;-65
2021/11/01 06:51:16;;;;;;;2.13;1.97;;;11.70;99.90;;;;;;5033070;28;20515;-66
2021/11/01 07:16:10;;;;;;;6.27;2.70;;;12.60;99.90;;;;;;5031605;28;20427;-68
2021/11/01 07:18:45;;;;;;;3.50;3.00;;;12.50;99.90;;;;;;5031738;28;20406;-66
2021/11/01 07:21:37;;;;;;;2.40;1.93;;;12.60;99.90;;;;;;5031675;28;20430;-66
2021/11/01 07:24:32;;;;;;;4.67;1.70;;;12.60;99.90;;;;;;5031393;28;20854;-66
2021/11/01 07:30:23;;;;;;;3.70;3.27;;;13.00;99.90;;;;;;5031602;28;20428;-68
2021/11/01 07:38:59;;;;;;;2.90;2.70;;;12.90;99.90;;;;;;5031114;28;20403;-66
2021/11/01 08:23:38;;;;;;;3.07;2.80;;;13.00;99.90;;;;;;4979426;28;20450;-67
2021/11/01 08:29:06;;;;;;;2.37;2.17;;;12.90;99.90;;;;;;5004974;28;20957;-67
2021/11/01 08:40:16;;;;;;;3.57;3.33;;;13.00;99.90;;;;;;5044094;28;20516;-67
2021/11/01 08:48:43;;;;;;;2.30;1.57;;;13.50;99.90;;;;;;5044810;28;20493;-67
2021/11/01 08:51:36;;;;;;;4.77;4.37;;;13.60;99.90;;;;;;5054617;28;20418;-66
2021/11/01 09:05:44;;;;;;;3.23;2.73;;;13.60;99.90;;;;;;5019341;28;20448;-67
2021/11/01 09:25:02;;;;;;;3.27;2.27;;;13.80;99.90;;;;;;5030300;28;20506;-68
2021/11/01 09:27:33;;;;;;;2.90;1.50;;;13.80;99.90;;;;;;5055075;28;20390;-67
2021/11/01 09:30:22;;;;;;;2.53;2.30;;;13.90;99.90;;;;;;5054893;28;20394;-66
2021/11/01 09:35:50;;;;;;;2.80;2.60;;;13.50;99.90;;;;;;5033759;28;20422;-67
2021/11/01 09:38:40;;;;;;;2.47;2.23;;;13.60;99.90;;;;;;5033643;28;20804;-67
2021/11/01 09:41:09;;;;;;;8.03;3.30;;;13.70;99.90;;;;;;5033679;28;20439;-68
2021/11/01 09:43:39;;;;;;;3.20;2.77;;;13.70;99.90;;;;;;5033103;28;20490;-66
2021/11/01 09:46:10;;;;;;;4.07;2.20;;;13.60;99.90;;;;;;5015257;28;20428;-68
2021/11/01 09:48:40;;;;;;;3.50;2.10;;;13.60;99.90;;;;;;5049757;28;20621;-68
2021/11/01 09:51:11;;;;;;;4.33;2.23;;;13.70;99.90;;;;;;5053989;28;20907;-66
2021/11/01 09:53:42;;;;;;;2.47;1.77;;;13.70;99.90;;;;;;5035798;28;20510;-67
2021/11/01 09:56:21;;;;;;;2.87;2.60;;;13.80;99.90;;;;;;5053083;28;20398;-66
2021/11/01 10:01:36;;;;;;;2.20;1.50;;;14.10;99.90;;;;;;5052973;28;20404;-66
2021/11/01 10:04:13;;;;;;;3.27;1.47;;;14.00;99.90;;;;;;5053079;28;20983;-67
2021/11/01 10:06:41;;;;;;;8.60;2.80;;;14.00;99.90;;;;;;5052868;28;20780;-67
2021/11/01 10:09:13;;;;;;;3.57;2.03;;;14.20;99.90;;;;;;5053298;28;20425;-67
2021/11/01 10:11:45;;;;;;;2.13;1.93;;;14.30;99.90;;;;;;5066728;22;20461;-64
2021/11/01 10:14:14;;;;;;;4.47;3.13;;;14.50;99.90;;;;;;5034915;28;20474;-59
2021/11/01 10:19:33;;;;;;;7.50;2.77;;;14.40;99.90;;;;;;5053055;28;20514;-62
2021/11/01 10:22:06;;;;;;;1.50;1.40;;;14.20;99.90;;;;;;5052878;28;20418;-65
2021/11/01 10:24:39;;;;;;;4.43;2.20;;;14.20;99.90;;;;;;5052056;28;20469;-62
2021/11/01 10:27:08;;;;;;;4.77;2.77;;;14.40;99.90;;;;;;5052566;28;20477;-65
2021/11/01 10:29:51;;;;;;;3.83;2.20;;;14.30;99.90;;;;;;5052666;28;20431;-64
2021/11/01 10:32:38;;;;;;;2.17;1.10;;;14.20;99.90;;;;;;5053366;28;20960;-64
2021/11/01 10:35:15;;;;;;;2.70;1.93;;;14.20;99.90;;;;;;5052592;28;20528;-63
2021/11/01 10:38:13;;;;;;;4.97;2.73;;;14.20;99.90;;;;;;5052165;28;20407;-66
2021/11/01 10:40:49;;;;;;;2.47;1.47;;;14.40;99.90;;;;;;5053587;28;20465;-63
2021/11/01 11:11:45;;;;;;;1.53;1.10;;;15.10;99.90;;;;;;5052072;28;20418;-63
2021/11/01 11:14:21;;;;;;;3.73;1.47;;;14.90;99.90;;;;;;5052026;28;20798;-63
2021/11/01 11:17:06;;;;;;;2.10;1.10;;;14.90;99.90;;;;;;5051604;28;20930;-63
2021/11/01 11:19:49;;;;;;;2.20;1.40;;;15.00;99.90;;;;;;5051763;28;20397;-64
2021/11/01 11:28:12;;;;;;;5.07;1.80;;;14.90;99.90;;;;;;5040612;28;20413;-64
2021/11/01 11:42:23;;;;;;;3.00;1.57;;;15.10;99.90;;;;;;5051240;28;20418;-64
2021/11/01 11:47:43;;;;;;;2.83;2.50;;;15.10;99.90;;;;;;5033516;28;20428;-64
2021/11/01 11:50:17;;;;;;;1.97;1.87;;;15.10;99.90;;;;;;5051557;28;20402;-62
2021/11/01 11:52:48;;;;;;;2.40;2.03;;;14.90;99.90;;;;;;5052461;28;20573;-64
2021/11/01 11:55:20;;;;;;;1.93;1.60;;;14.90;99.90;;;;;;5052366;28;20462;-64
2021/11/01 11:57:59;;;;;;;3.10;2.77;;;15.00;99.90;;;;;;5052378;28;20450;-64
2021/11/01 12:00:29;;;;;;;1.23;0.80;;;14.90;99.90;;;;;;5052645;28;20927;-63
2021/11/01 12:03:10;;;;;;;1.30;0.90;;;15.00;99.90;;;;;;5052658;28;20445;-64
2021/11/01 12:05:42;;;;;;;7.03;3.83;;;15.00;99.90;;;;;;5052639;28;20404;-64
2021/11/01 12:08:19;;;;;;;1.10;0.73;;;14.90;99.90;;;;;;5052498;28;20418;-67
2021/11/01 12:19:19;;;;;;;2.57;0.90;;;14.90;99.90;;;;;;5051563;28;20394;-65
2021/11/01 12:21:52;;;;;;;2.23;1.67;;;14.80;99.90;;;;;;5051331;28;20412;-65
2021/11/01 12:24:26;;;;;;;2.07;1.80;;;14.70;99.90;;;;;;5050983;28;20447;-65
2021/11/01 12:27:02;;;;;;;1.30;0.93;;;14.60;99.90;;;;;;5051262;28;20385;-65
2021/11/01 12:29:31;;;;;;;2.00;1.83;;;14.50;99.90;;;;;;5051091;28;20419;-66
2021/11/01 12:32:05;;;;;;;1.40;1.30;;;14.40;99.90;;;;;;5051121;28;20489;-64
2021/11/01 12:34:40;;;;;;;2.60;1.50;;;14.50;99.90;;;;;;5050840;28;20954;-64
2021/11/01 12:37:16;;;;;;;1.10;0.77;;;14.50;99.90;;;;;;5050883;28;20767;-65
2021/11/01 12:39:50;;;;;;;11.47;2.00;;;14.40;99.90;;;;;;5050902;28;20426;-65
2021/11/01 12:59:40;;;;;;;2.00;1.37;;;13.90;99.90;;;;;;5036264;28;20523;-65
2021/11/01 13:02:12;;;;;;;0.90;0.70;;;13.90;99.90;;;;;;5035014;28;20513;-66
2021/11/01 13:04:43;;;;;;;2.00;1.47;;;13.90;99.90;;;;;;5034743;28;20417;-66
2021/11/01 13:07:22;;;;;;;1.70;1.57;;;13.90;99.90;;;;;;5034534;28;20401;-66
2021/11/01 13:09:56;;;;;;;3.57;1.33;;;13.80;99.90;;;;;;5034515;28;20430;-65
2021/11/01 13:12:51;;;;;;;1.43;0.83;;;13.70;99.90;;;;;;5034942;28;20437;-65
2021/11/01 13:18:11;;;;;;;1.37;0.90;;;13.70;99.90;;;;;;5034468;28;20461;-65
2021/11/01 13:20:43;;;;;;;5.00;3.57;;;13.80;99.90;;;;;;5034833;28;20481;-66
2021/11/01 13:23:12;;;;;;;3.53;2.40;;;13.70;99.90;;;;;;5034401;28;20446;-66
2021/11/01 13:25:58;;;;;;;3.73;1.77;;;13.80;99.90;;;;;;5034140;28;20431;-63
2021/11/01 13:37:08;;;;;;;1.23;1.10;;;13.70;99.90;;;;;;5033642;28;20502;-66
2021/11/01 13:39:37;;;;;;;1.00;0.67;;;13.80;99.90;;;;;;5034099;28;20450;-68
2021/11/01 13:42:10;;;;;;;8.57;2.20;;;13.60;99.90;;;;;;5035096;28;20456;-65
2021/11/01 13:44:42;;;;;;;1.63;0.87;;;13.50;99.90;;;;;;5034055;28;20399;-67
2021/11/01 13:47:14;;;;;;;1.60;1.20;;;13.50;99.90;;;;;;5033922;28;20691;-63
2021/11/01 13:49:45;;;;;;;0.97;0.63;;;13.50;99.90;;;;;;5033453;28;20448;-65
2021/11/01 13:52:29;;;;;;;1.40;1.30;;;13.50;99.90;;;;;;5033566;28;20454;-64
2021/11/01 13:55:02;;;;;;;1.97;0.93;;;13.40;99.90;;;;;;5032945;28;20841;-63
2021/11/01 13:57:33;;;;;;;1.67;0.60;;;13.40;99.90;;;;;;5033165;28;20414;-64
2021/11/01 14:00:20;;;;;;;0.90;0.50;;;13.40;99.90;;;;;;5033216;28;20428;-64
2021/11/01 14:11:34;;;;;;;1.00;0.60;;;13.20;99.90;;;;;;5033165;28;20438;-69
2021/11/01 14:14:18;;;;;;;1.43;0.70;;;13.20;99.90;;;;;;5033234;28;20436;-64
2021/11/01 14:16:54;;;;;;;0.90;0.50;;;13.10;99.90;;;;;;5032992;28;20554;-64
2021/11/01 14:28:17;;;;;;;0.90;0.50;;;12.80;99.90;;;;;;5068898;28;20413;-66
2021/11/01 14:34:08;;;;;;;0.90;0.50;;;12.80;99.90;;;;;;5069638;28;20442;-65
2021/11/01 14:37:04;;;;;;;1.43;1.20;;;12.70;99.90;;;;;;5069250;28;20426;-64
2021/11/01 15:08:05;;;;;;;0.80;0.40;;;12.30;99.90;;;;;;5067686;28;20477;-66
2021/11/01 15:13:34;;;;;;;1.03;0.60;;;12.30;99.90;;;;;;5069039;28;20489;-65
2021/11/01 15:19:17;;;;;;;1.13;0.70;;;12.10;99.90;;;;;;5068151;28;20869;-65
2021/11/01 15:22:06;;;;;;;0.97;0.53;;;12.10;99.90;;;;;;5067633;28;20462;-66
2021/11/01 15:35:58;;;;;;;0.90;0.60;;;12.10;99.90;;;;;;5053736;28;20423;-65
2021/11/01 16:15:32;;;;;;;1.77;0.60;;;11.90;99.90;;;;;;5050977;28;20420;-66
2021/11/01 16:18:04;;;;;;;0.90;0.60;;;12.00;99.90;;;;;;5054622;28;20455;-66
2021/11/01 16:20:34;;;;;;;1.10;0.57;;;12.00;99.90;;;;;;5056020;28;20419;-66
2021/11/01 16:25:44;;;;;;;1.00;0.70;;;11.90;99.90;;;;;;5042871;28;20775;-67
2021/11/01 16:28:14;;;;;;;0.80;0.50;;;11.90;99.90;;;;;;5055640;28;20415;-67
2021/11/01 16:30:52;;;;;;;0.80;0.50;;;11.80;99.90;;;;;;5057024;28;20757;-66
2021/11/01 16:33:21;;;;;;;1.00;0.77;;;11.90;99.90;;;;;;5056223;28;20447;-66
2021/11/01 16:35:56;;;;;;;2.13;1.93;;;11.90;99.90;;;;;;5053947;28;20477;-68
2021/11/01 16:38:29;;;;;;;1.07;0.63;;;11.80;99.90;;;;;;5054084;28;20418;-66
2021/11/01 16:40:57;;;;;;;2.60;0.90;;;11.80;99.90;;;;;;5053330;28;20970;-66
2021/11/01 16:43:29;;;;;;;1.67;1.40;;;11.70;99.90;;;;;;5053052;28;20422;-67
2021/11/01 16:45:57;;;;;;;1.00;0.60;;;11.70;99.90;;;;;;5052569;28;20427;-67
2021/11/01 16:48:26;;;;;;;0.80;0.50;;;11.60;99.90;;;;;;5053810;28;20407;-67
2021/11/01 16:50:56;;;;;;;1.20;1.10;;;11.50;99.90;;;;;;5052083;28;20880;-66
2021/11/01 16:53:26;;;;;;;1.20;0.90;;;11.50;99.90;;;;;;5053426;28;20729;-67
2021/11/01 16:56:05;;;;;;;1.40;0.97;;;11.60;99.90;;;;;;5053722;28;20981;-67
2021/11/01 16:58:43;;;;;;;0.90;0.63;;;11.60;99.90;;;;;;5054414;28;20419;-67
2021/11/01 17:01:16;;;;;;;0.90;0.60;;;11.60;99.90;;;;;;5053304;28;20484;-66
2021/11/01 17:03:47;;;;;;;1.00;0.77;;;11.60;99.90;;;;;;5053534;28;20468;-67
2021/11/01 17:06:27;;;;;;;0.90;0.80;;;11.70;99.90;;;;;;5052393;28;20794;-68
2021/11/01 17:09:19;;;;;;;1.00;0.73;;;11.60;99.90;;;;;;5052597;28;20419;-67
2021/11/01 17:23:00;;;;;;;1.00;0.60;;;12.00;99.90;;;;;;5051032;28;20466;-66
2021/11/01 17:25:43;;;;;;;1.47;0.93;;;12.10;99.90;;;;;;5052071;28;20407;-67
2021/11/01 17:28:24;;;;;;;1.70;0.60;;;12.20;99.90;;;;;;5051872;28;20423;-67
2021/11/01 17:31:13;;;;;;;0.80;0.40;;;12.20;99.90;;;;;;5052204;28;20419;-67
2021/11/01 17:36:54;;;;;;;0.80;0.50;;;12.40;99.90;;;;;;5009711;28;20467;-66
2021/11/01 18:41:21;;;;;;;0.80;0.50;;;12.20;99.90;;;;;;5007031;28;20432;-66
2021/11/01 18:44:31;;;;;;;0.80;0.50;;;12.10;99.90;;;;;;5031805;28;20475;-65
2021/11/01 18:52:59;;;;;;;1.37;1.27;;;11.60;99.90;;;;;;4970117;28;20482;-67
2021/11/01 18:55:27;;;;;;;1.10;0.60;;;11.60;99.90;;;;;;5009623;28;20419;-66
2021/11/01 18:57:56;;;;;;;1.77;1.47;;;11.70;99.90;;;;;;5030748;28;20448;-68
2021/11/01 19:00:25;;;;;;;1.67;1.00;;;11.60;99.90;;;;;;5029790;28;20444;-66
2021/11/01 19:02:58;;;;;;;1.00;0.70;;;11.70;99.90;;;;;;5029413;28;20499;-67
2021/11/01 19:05:32;;;;;;;2.20;1.83;;;11.70;99.90;;;;;;5030720;28;20424;-66
2021/11/01 19:08:13;;;;;;;0.80;0.50;;;11.70;99.90;;;;;;5032389;28;20421;-67
2021/11/01 19:11:10;;;;;;;1.00;0.70;;;11.70;99.90;;;;;;5034285;28;20987;-68
2021/11/01 20:04:24;;;;;;;2.60;1.33;;;11.70;99.90;;;;;;5033759;28;20497;-68
2021/11/01 20:07:13;;;;;;;1.10;0.60;;;11.80;99.90;;;;;;5033255;28;20424;-67
2021/11/01 20:10:11;;;;;;;1.30;1.17;;;12.00;99.90;;;;;;5033353;28;20391;-66
2021/11/01 20:12:52;;;;;;;1.70;1.60;;;11.90;99.90;;;;;;5027568;28;20864;-67
2021/11/01 21:25:51;;;;;;;1.33;0.80;;;11.50;99.90;;;;;;5032676;28;20426;-68
2021/11/01 21:28:19;;;;;;;1.03;0.70;;;11.50;99.90;;;;;;5031910;28;20929;-67
2021/11/01 21:30:47;;;;;;;0.90;0.50;;;11.40;99.90;;;;;;5033162;28;20394;-66
2021/11/01 21:33:21;;;;;;;0.80;0.50;;;11.50;99.90;;;;;;5034456;28;20479;-68
2021/11/01 21:35:52;;;;;;;1.07;0.87;;;11.50;99.90;;;;;;5035077;28;20483;-69
2021/11/01 21:38:20;;;;;;;1.83;0.60;;;11.40;99.90;;;;;;5034784;28;20406;-68
2021/11/01 21:40:51;;;;;;;1.57;1.13;;;11.30;99.90;;;;;;5034453;28;20429;-66
2021/11/01 21:43:21;;;;;;;1.00;0.70;;;11.20;99.90;;;;;;5034644;28;20749;-67
2021/11/01 21:45:49;;;;;;;1.00;0.67;;;11.40;99.90;;;;;;5039463;28;20669;-67
2021/11/01 21:48:19;;;;;;;1.10;0.60;;;11.40;99.90;;;;;;5031697;28;20994;-67
2021/11/01 21:50:49;;;;;;;1.10;0.83;;;11.40;99.90;;;;;;5031511;28;20939;-66
2021/11/01 21:53:21;;;;;;;0.90;0.63;;;11.40;99.90;;;;;;5031555;28;20436;-67
2021/11/01 21:55:49;;;;;;;1.17;0.80;;;11.40;99.90;;;;;;5031596;28;20431;-67
2021/11/01 21:58:31;;;;;;;1.00;0.80;;;11.70;99.90;;;;;;5031723;28;20395;-67
2021/11/01 22:01:24;;;;;;;1.20;0.67;;;11.70;99.90;;;;;;5031488;28;20416;-66
2021/11/01 22:09:57;;;;;;;1.50;0.70;;;11.50;99.90;;;;;;5029923;28;20411;-67
2021/11/01 22:18:05;;;;;;;1.53;0.70;;;11.30;99.90;;;;;;5013756;28;20457;-67
2021/11/01 22:20:37;;;;;;;1.10;0.63;;;11.10;99.90;;;;;;4992049;28;20395;-66
2021/11/01 22:23:10;;;;;;;1.03;0.90;;;11.10;99.90;;;;;;4991888;28;20960;-67
2021/11/01 22:25:44;;;;;;;1.27;0.93;;;11.20;99.90;;;;;;5006956;28;20438;-67
2021/11/01 22:34:01;;;;;;;1.00;0.57;;;11.30;99.90;;;;;;4991833;28;20781;-67
2021/11/01 22:39:23;;;;;;;0.90;0.70;;;11.30;99.90;;;;;;5007086;28;20438;-67
2021/11/01 22:45:09;;;;;;;1.30;0.60;;;11.00;99.90;;;;;;4992198;28;20465;-67
2021/11/01 22:56:12;;;;;;;1.10;0.60;;;11.00;99.90;;;;;;4994255;28;20449;-66
2021/11/01 22:58:42;;;;;;;1.30;0.67;;;11.10;99.90;;;;;;5009416;28;20441;-66
2021/11/01 23:01:18;;;;;;;2.03;0.60;;;11.10;99.90;;;;;;4995813;28;20429;-65
2021/11/01 23:03:55;;;;;;;0.83;0.50;;;11.10;99.90;;;;;;4995139;28;20465;-66